Terminal Aerodrome Forecast
Issued by NWS

Home | Current Version | Previous Version | Text Only | Print | Product List | Glossary On
Versions: 1 2 3 4 5 6 7 8 9 10 11 12 13
000
FTUS42 KGSP 061722
TAFGMU
TAF
KGMU 061722Z 0618/0718 09007KT P6SM FEW250
     FM070200 08003KT P6SM FEW250
     FM071500 04006KT P6SM SCT240=

USA.gov is the U.S. government's official web portal to all federal, state and local government web resources and services.